createdAt,value
2022-12-18T00:01:22.855Z,35.30
2022-12-18T00:03:50.518Z,34.00
2022-12-18T00:06:18.223Z,39.20
2022-12-18T00:08:45.884Z,39.70
2022-12-18T00:11:16.888Z,41.40
2022-12-18T00:13:45.100Z,35.20
2022-12-18T00:16:14.945Z,35.00
2022-12-18T00:18:42.497Z,36.20
2022-12-18T00:21:11.150Z,33.50
2022-12-18T00:23:39.727Z,29.40
2022-12-18T00:26:10.995Z,30.20
2022-12-18T00:28:37.610Z,29.70
2022-12-18T00:31:11.254Z,31.40
2022-12-18T00:33:39.428Z,33.30
2022-12-18T00:36:21.119Z,32.20
2022-12-18T00:38:48.865Z,34.10
2022-12-18T00:41:38.895Z,32.40
2022-12-18T00:44:08.324Z,31.20
2022-12-18T00:46:35.061Z,29.80
2022-12-18T00:49:02.010Z,29.20
2022-12-18T00:51:28.757Z,30.10
2022-12-18T00:53:55.599Z,29.50
2022-12-18T00:56:23.350Z,28.70
2022-12-18T00:58:50.195Z,28.70
2022-12-18T01:01:18.172Z,27.80
2022-12-18T01:03:47.055Z,28.40
2022-12-18T01:06:15.340Z,31.80
2022-12-18T01:08:42.477Z,31.50
2022-12-18T01:11:18.228Z,32.30
2022-12-18T01:13:45.273Z,32.40
2022-12-18T01:16:13.648Z,32.10
2022-12-18T01:18:40.598Z,34.00
2022-12-18T01:21:12.859Z,30.90
2022-12-18T01:23:40.117Z,30.50
2022-12-18T01:26:17.707Z,31.60
2022-12-18T01:28:44.863Z,32.10
2022-12-18T01:31:14.172Z,32.20
2022-12-18T01:33:41.567Z,29.30
2022-12-18T01:36:14.515Z,29.00
2022-12-18T01:38:41.398Z,28.20
2022-12-18T01:41:09.442Z,28.90
2022-12-18T01:44:25.197Z,28.90
2022-12-18T01:46:53.235Z,30.80
2022-12-18T01:49:19.904Z,29.60
2022-12-18T01:51:46.496Z,29.20
2022-12-18T01:54:13.177Z,28.20
2022-12-18T01:56:39.838Z,26.30
2022-12-18T01:59:10.470Z,27.00
2022-12-18T02:01:38.419Z,28.90
2022-12-18T02:04:34.822Z,29.00
2022-12-18T02:07:14.539Z,28.70
2022-12-18T02:09:51.467Z,29.80
2022-12-18T02:12:22.347Z,28.60
2022-12-18T02:15:02.861Z,30.50
2022-12-18T02:17:55.230Z,29.00
2022-12-18T02:20:50.294Z,29.70
2022-12-18T02:23:35.364Z,27.10
2022-12-18T02:26:14.553Z,28.40
2022-12-18T02:28:52.471Z,27.60
2022-12-18T02:31:27.257Z,27.90
2022-12-18T02:34:00.642Z,28.40
2022-12-18T02:36:29.554Z,30.00
2022-12-18T02:38:59.442Z,28.80
2022-12-18T02:41:26.772Z,28.60
2022-12-18T02:43:58.535Z,28.80
2022-12-18T02:46:41.524Z,28.60
2022-12-18T02:49:30.116Z,30.70
2022-12-18T02:52:13.624Z,31.70
2022-12-18T02:55:08.360Z,30.60
2022-12-18T02:57:46.689Z,32.20
2022-12-18T03:00:18.949Z,28.80
2022-12-18T03:02:54.324Z,29.90
2022-12-18T03:05:32.163Z,29.30
2022-12-18T03:08:23.583Z,29.40
2022-12-18T03:11:01.870Z,28.70
2022-12-18T03:13:41.528Z,31.00
2022-12-18T03:16:12.722Z,29.80
2022-12-18T03:18:48.122Z,30.70
2022-12-18T03:21:17.830Z,31.00
2022-12-18T03:23:49.904Z,31.30
2022-12-18T03:26:21.111Z,28.80
2022-12-18T03:29:07.846Z,29.70
2022-12-18T03:31:40.527Z,27.00
2022-12-18T03:34:14.973Z,29.70
2022-12-18T03:36:44.296Z,30.00
2022-12-18T03:39:11.718Z,30.80
2022-12-18T03:41:51.931Z,32.30
2022-12-18T03:44:40.520Z,33.70
2022-12-18T03:47:39.662Z,31.60
2022-12-18T03:50:21.231Z,31.10
2022-12-18T03:52:56.671Z,30.60
2022-12-18T03:55:25.671Z,30.70
2022-12-18T03:57:59.734Z,30.80
2022-12-18T04:00:30.978Z,30.70
2022-12-18T04:03:05.295Z,30.90
2022-12-18T04:05:38.023Z,29.70
2022-12-18T04:08:06.420Z,30.90
2022-12-18T04:10:36.183Z,32.90
2022-12-18T04:13:03.118Z,32.90
2022-12-18T04:15:30.119Z,32.80
2022-12-18T04:17:58.362Z,32.10
2022-12-18T04:20:25.654Z,33.20
2022-12-18T04:22:53.546Z,32.60
2022-12-18T04:25:20.386Z,31.10
2022-12-18T04:28:16.107Z,36.30
2022-12-18T04:30:43.218Z,36.20
2022-12-18T04:33:11.594Z,34.50
2022-12-18T04:35:42.144Z,33.30
2022-12-18T04:38:09.207Z,32.10
2022-12-18T04:40:37.261Z,31.70
2022-12-18T04:43:05.908Z,29.80
2022-12-18T04:45:32.992Z,28.50
2022-12-18T04:48:00.611Z,28.70
2022-12-18T04:50:28.026Z,28.00
2022-12-18T04:52:55.481Z,30.50
2022-12-18T04:55:22.223Z,29.90
2022-12-18T04:57:48.856Z,32.60
2022-12-18T05:00:15.930Z,33.30
2022-12-18T05:02:42.972Z,33.80
2022-12-18T05:05:10.316Z,32.90
2022-12-18T05:07:37.248Z,33.50
2022-12-18T05:10:04.761Z,32.70
2022-12-18T05:12:32.675Z,32.50
2022-12-18T05:14:59.306Z,33.60
2022-12-18T05:17:26.148Z,34.80
2022-12-18T05:19:52.890Z,34.40
2022-12-18T05:22:19.525Z,33.30
2022-12-18T05:24:46.160Z,32.70
2022-12-18T05:27:12.800Z,33.50
2022-12-18T05:29:39.435Z,34.00
2022-12-18T05:32:06.033Z,35.60
2022-12-18T05:34:33.942Z,35.70
2022-12-18T05:37:00.571Z,36.90
2022-12-18T05:39:27.296Z,35.60
2022-12-18T05:41:53.948Z,34.40
2022-12-18T05:44:20.586Z,32.80
2022-12-18T05:46:47.199Z,31.70
2022-12-18T05:49:13.860Z,30.90
2022-12-18T05:51:40.496Z,30.40
2022-12-18T05:54:08.110Z,30.60
2022-12-18T05:56:34.895Z,30.30
2022-12-18T05:59:01.738Z,30.40
2022-12-18T06:01:28.959Z,31.60
2022-12-18T06:03:56.056Z,30.00
2022-12-18T06:06:25.847Z,33.50
2022-12-18T06:08:53.712Z,32.40
2022-12-18T06:11:23.428Z,32.30
2022-12-18T06:13:57.907Z,31.60
2022-12-18T06:16:26.954Z,31.00
2022-12-18T06:18:56.575Z,33.30
2022-12-18T06:21:23.171Z,33.00
2022-12-18T06:23:49.923Z,31.50
2022-12-18T06:26:16.556Z,31.10
2022-12-18T06:28:43.211Z,31.80
2022-12-18T06:31:10.300Z,30.80
2022-12-18T06:33:38.284Z,30.20
2022-12-18T06:36:11.864Z,30.90
2022-12-18T06:38:41.301Z,32.20
2022-12-18T06:41:10.453Z,33.00
2022-12-18T06:43:37.587Z,33.60
2022-12-18T06:46:05.569Z,32.80
2022-12-18T06:48:32.550Z,34.30
2022-12-18T06:50:59.920Z,37.50
2022-12-18T06:53:26.658Z,36.80
2022-12-18T06:56:05.077Z,36.90
2022-12-18T06:58:34.596Z,36.50
2022-12-18T07:01:02.671Z,38.80
2022-12-18T07:03:29.726Z,39.20
2022-12-18T07:05:56.977Z,38.60
2022-12-18T07:08:23.702Z,38.30
2022-12-18T07:10:54.426Z,34.90
2022-12-18T07:13:23.615Z,35.80
2022-12-18T07:15:50.359Z,33.60
2022-12-18T07:18:16.994Z,33.10
2022-12-18T07:20:44.570Z,35.80
2022-12-18T07:23:12.517Z,35.30
2022-12-18T07:25:39.970Z,35.50
2022-12-18T07:28:06.601Z,34.20
2022-12-18T07:30:33.369Z,36.80
2022-12-18T07:33:00.088Z,38.20
2022-12-18T07:35:26.726Z,36.80
2022-12-18T07:37:53.462Z,37.20
2022-12-18T07:40:20.138Z,39.60
2022-12-18T07:42:46.942Z,49.10
2022-12-18T07:45:13.681Z,51.00
2022-12-18T07:47:41.753Z,45.90
2022-12-18T07:50:08.726Z,41.10
2022-12-18T07:52:35.435Z,47.20
2022-12-18T07:55:02.788Z,49.20
2022-12-18T08:00:16.702Z,52.00
2022-12-18T08:02:43.701Z,53.40
2022-12-18T08:05:10.535Z,52.20
2022-12-18T08:07:37.172Z,51.50
2022-12-18T08:10:04.625Z,45.80
2022-12-18T08:12:33.005Z,45.80
2022-12-18T08:14:59.639Z,45.80
2022-12-18T08:17:26.410Z,45.40
2022-12-18T08:19:53.237Z,45.40
2022-12-18T08:22:19.958Z,42.00
2022-12-18T08:24:46.597Z,43.80
2022-12-18T08:27:28.980Z,42.00
2022-12-18T08:29:57.495Z,48.60
2022-12-18T08:32:25.755Z,56.20
2022-12-18T08:34:52.805Z,50.20
2022-12-18T08:37:19.467Z,44.30
2022-12-18T08:39:46.182Z,48.60
2022-12-18T08:42:31.409Z,48.40
2022-12-18T08:45:01.573Z,56.80
2022-12-18T08:47:28.319Z,50.40
2022-12-18T08:49:55.357Z,42.50
2022-12-18T08:52:22.207Z,46.00
2022-12-18T08:54:48.944Z,42.50
2022-12-18T08:57:15.683Z,43.60
2022-12-18T08:59:42.522Z,42.70
2022-12-18T09:02:11.954Z,44.10
2022-12-18T09:04:40.307Z,42.80
2022-12-18T09:07:06.950Z,42.40
2022-12-18T09:09:33.674Z,41.40
2022-12-18T09:12:00.319Z,41.80
2022-12-18T09:14:27.564Z,43.80
2022-12-18T09:16:54.230Z,41.10
2022-12-18T09:19:21.156Z,38.90
2022-12-18T09:21:48.435Z,38.70
2022-12-18T09:24:16.279Z,37.40
2022-12-18T09:26:43.359Z,35.30
2022-12-18T09:29:10.869Z,37.80
2022-12-18T09:31:40.064Z,38.40
2022-12-18T09:34:07.357Z,39.00
2022-12-18T09:36:33.948Z,41.00
2022-12-18T09:39:04.982Z,40.70
2022-12-18T09:41:54.315Z,44.80
2022-12-18T09:44:30.526Z,37.40
2022-12-18T09:47:15.898Z,36.70
2022-12-18T09:49:45.809Z,39.30
2022-12-18T09:52:22.275Z,38.10
2022-12-18T09:55:11.811Z,40.10
2022-12-18T09:57:45.860Z,37.90
2022-12-18T10:00:18.949Z,36.70
2022-12-18T10:02:46.594Z,35.30
2022-12-18T10:05:42.536Z,36.70
2022-12-18T10:08:40.692Z,35.10
2022-12-18T10:11:23.733Z,35.30
2022-12-18T10:14:06.151Z,33.60
2022-12-18T10:17:21.013Z,39.10
2022-12-18T10:20:10.155Z,38.90
2022-12-18T10:22:43.767Z,35.70
2022-12-18T10:25:19.326Z,36.60
2022-12-18T10:27:46.051Z,32.60
2022-12-18T10:30:15.441Z,34.40
2022-12-18T10:32:43.217Z,36.10
2022-12-18T10:35:21.014Z,35.00
2022-12-18T10:38:22.263Z,34.50
2022-12-18T10:41:04.035Z,38.00
2022-12-18T10:43:31.848Z,37.20
2022-12-18T10:45:58.429Z,40.30
2022-12-18T10:48:25.266Z,40.40
2022-12-18T10:53:42.178Z,41.30
2022-12-18T10:56:09.859Z,40.60
2022-12-18T10:58:39.076Z,35.70
2022-12-18T11:01:12.188Z,36.30
2022-12-18T11:03:44.967Z,34.70
2022-12-18T11:06:14.534Z,35.00
2022-12-18T11:08:44.362Z,34.50
2022-12-18T11:11:23.487Z,34.50
2022-12-18T11:14:18.091Z,34.60
2022-12-18T11:17:23.673Z,34.80
2022-12-18T11:19:38.093Z,36.70
2022-12-18T11:22:19.270Z,36.80
2022-12-18T11:25:29.548Z,42.80
2022-12-18T11:27:47.812Z,44.00
2022-12-18T11:30:20.751Z,46.20
2022-12-18T11:32:54.664Z,41.60
2022-12-18T11:35:42.797Z,44.60
2022-12-18T11:38:19.065Z,38.90
2022-12-18T11:40:52.103Z,39.30
2022-12-18T11:43:34.296Z,38.60
2022-12-18T11:46:19.506Z,35.90
2022-12-18T11:48:54.639Z,33.80
2022-12-18T11:51:32.768Z,33.50
2022-12-18T11:54:01.908Z,36.60
2022-12-18T11:56:39.790Z,36.10
2022-12-18T11:59:23.702Z,35.70
2022-12-18T12:02:25.464Z,36.00
2022-12-18T12:05:11.147Z,35.50
2022-12-18T12:07:55.696Z,35.00
2022-12-18T12:10:31.454Z,36.20
2022-12-18T12:13:49.214Z,36.70
2022-12-18T12:16:30.199Z,36.00
2022-12-18T12:19:11.029Z,36.80
2022-12-18T12:21:54.045Z,35.30
2022-12-18T12:24:37.636Z,34.40
2022-12-18T12:27:20.762Z,34.20
2022-12-18T12:30:08.661Z,35.90
2022-12-18T12:32:49.564Z,34.50
2022-12-18T12:35:52.613Z,33.10
2022-12-18T12:38:26.135Z,34.50
2022-12-18T12:41:35.765Z,39.00
2022-12-18T12:44:08.466Z,38.30
2022-12-18T12:46:41.777Z,36.70
2022-12-18T12:49:14.754Z,35.80
2022-12-18T12:51:46.257Z,33.50
2022-12-18T12:54:22.615Z,36.40
2022-12-18T12:56:54.936Z,36.30
2022-12-18T12:59:54.333Z,34.70
2022-12-18T13:02:23.960Z,35.80
2022-12-18T13:05:01.435Z,36.90
2022-12-18T13:08:07.033Z,36.70
2022-12-18T13:10:40.084Z,33.50
2022-12-18T13:13:16.563Z,35.20
2022-12-18T13:15:48.915Z,35.50
2022-12-18T13:18:20.490Z,35.90
2022-12-18T13:21:02.898Z,38.50
2022-12-18T13:23:33.867Z,39.00
2022-12-18T13:26:26.323Z,41.10
2022-12-18T13:28:57.994Z,41.60
2022-12-18T13:31:40.068Z,44.40
2022-12-18T13:34:28.011Z,44.90
2022-12-18T13:37:17.088Z,43.30
2022-12-18T13:39:44.374Z,43.50
2022-12-18T13:42:31.278Z,43.80
2022-12-18T13:44:58.885Z,44.40
2022-12-18T13:47:38.392Z,41.10
2022-12-18T13:50:36.085Z,37.30
2022-12-18T13:53:05.840Z,37.80
2022-12-18T13:55:33.151Z,35.60
2022-12-18T13:58:06.590Z,36.00
2022-12-18T14:00:34.514Z,35.70
2022-12-18T14:03:01.417Z,35.40
2022-12-18T14:05:32.195Z,36.50
2022-12-18T14:08:03.661Z,37.60
2022-12-18T14:10:47.829Z,36.40
2022-12-18T14:13:41.567Z,40.10
2022-12-18T14:16:13.737Z,41.30
2022-12-18T14:19:17.326Z,41.70
2022-12-18T14:21:49.639Z,50.80
2022-12-18T14:24:22.076Z,54.10
2022-12-18T14:26:50.774Z,51.60
2022-12-18T14:29:28.982Z,46.80
2022-12-18T14:32:19.674Z,46.30
2022-12-18T14:34:54.083Z,47.80
2022-12-18T14:37:24.040Z,48.10
2022-12-18T14:39:55.147Z,46.10
2022-12-18T14:42:21.863Z,50.30
2022-12-18T14:45:12.906Z,50.70
2022-12-18T14:47:35.294Z,51.00
2022-12-18T14:50:02.072Z,52.30
2022-12-18T14:52:32.284Z,52.90
2022-12-18T14:54:58.922Z,57.70
2022-12-18T14:57:34.412Z,64.70
2022-12-18T15:00:27.526Z,62.80
2022-12-18T15:02:56.960Z,60.00
2022-12-18T15:05:30.202Z,56.40
2022-12-18T15:07:59.571Z,57.10
2022-12-18T15:10:27.499Z,65.30
2022-12-18T15:12:57.401Z,71.90
2022-12-18T15:15:33.416Z,63.60
2022-12-18T15:18:01.163Z,55.40
2022-12-18T15:20:28.575Z,51.30
2022-12-18T15:22:55.211Z,54.60
2022-12-18T15:25:34.648Z,57.80
2022-12-18T15:28:01.269Z,49.10
2022-12-18T15:30:28.026Z,48.70
2022-12-18T15:33:25.278Z,47.00
2022-12-18T15:35:59.960Z,46.10
2022-12-18T15:38:27.280Z,45.00
2022-12-18T15:40:54.816Z,45.30
2022-12-18T15:43:35.171Z,44.70
2022-12-18T15:46:06.401Z,44.10
2022-12-18T15:48:41.060Z,43.30
2022-12-18T15:51:35.902Z,44.30
2022-12-18T15:54:05.551Z,45.00
2022-12-18T15:56:51.172Z,44.80
2022-12-18T15:59:20.018Z,42.70
2022-12-18T16:01:49.346Z,43.80
2022-12-18T16:04:21.076Z,45.00
2022-12-18T16:07:13.803Z,47.00
2022-12-18T16:09:35.729Z,44.30
2022-12-18T16:12:03.206Z,45.30
2022-12-18T16:14:31.229Z,42.10
2022-12-18T16:17:03.447Z,41.80
2022-12-18T16:19:30.709Z,43.20
2022-12-18T16:21:59.033Z,41.40
2022-12-18T16:24:28.983Z,40.90
2022-12-18T16:26:59.273Z,42.60
2022-12-18T16:29:28.414Z,42.70
2022-12-18T16:31:57.395Z,43.70
2022-12-18T16:34:28.678Z,44.80
2022-12-18T16:37:05.508Z,46.00
2022-12-18T16:39:37.382Z,44.20
2022-12-18T16:42:16.715Z,44.40
2022-12-18T16:44:44.001Z,46.30
2022-12-18T16:47:11.149Z,45.80
2022-12-18T16:49:41.233Z,46.20
2022-12-18T16:52:08.108Z,47.30
2022-12-18T16:54:36.038Z,43.50
2022-12-18T16:57:04.767Z,44.40
2022-12-18T16:59:36.284Z,45.70
2022-12-18T17:02:03.119Z,51.00
2022-12-18T17:04:30.063Z,48.30
2022-12-18T17:06:56.801Z,48.70
2022-12-18T17:09:24.798Z,51.00
2022-12-18T17:11:53.036Z,50.60
2022-12-18T17:14:22.650Z,51.30
2022-12-18T17:17:07.362Z,49.80
2022-12-18T17:19:36.408Z,50.70
2022-12-18T17:22:04.245Z,50.90
2022-12-18T17:24:34.767Z,56.60
2022-12-18T17:27:03.507Z,53.00
2022-12-18T17:29:30.368Z,50.50
2022-12-18T17:31:57.271Z,48.40
2022-12-18T17:34:25.441Z,49.20
2022-12-18T17:36:52.127Z,49.40
2022-12-18T17:39:20.417Z,49.30
2022-12-18T17:41:48.740Z,50.50
2022-12-18T17:44:16.498Z,47.20
2022-12-18T17:46:43.540Z,44.50
2022-12-18T17:49:11.191Z,47.30
2022-12-18T17:51:39.158Z,46.50
2022-12-18T17:54:06.112Z,46.60
2022-12-18T17:56:32.925Z,50.90
2022-12-18T17:58:59.601Z,54.90
2022-12-18T18:01:27.466Z,55.50
2022-12-18T18:03:57.422Z,49.10
2022-12-18T18:06:24.218Z,43.50
2022-12-18T18:08:53.001Z,44.80
2022-12-18T18:11:40.526Z,43.30
2022-12-18T18:14:13.425Z,45.30
2022-12-18T18:16:42.918Z,46.00
2022-12-18T18:19:12.621Z,50.20
2022-12-18T18:21:41.512Z,50.90
2022-12-18T18:24:10.913Z,50.50
2022-12-18T18:26:38.034Z,49.90
2022-12-18T18:29:06.538Z,52.00
2022-12-18T18:31:34.484Z,55.70
2022-12-18T18:34:06.766Z,55.70
2022-12-18T18:36:34.852Z,67.30
2022-12-18T18:39:02.548Z,69.10
2022-12-18T18:41:30.069Z,63.90
2022-12-18T18:43:57.969Z,60.20
2022-12-18T18:46:25.182Z,52.70
2022-12-18T18:48:51.948Z,52.80
2022-12-18T18:51:21.209Z,52.60
2022-12-18T18:53:50.736Z,54.10
2022-12-18T18:59:07.447Z,50.80
2022-12-18T19:01:34.404Z,48.80
2022-12-18T19:04:01.136Z,46.80
2022-12-18T19:06:28.784Z,50.40
2022-12-18T19:08:58.278Z,53.90
2022-12-18T19:11:45.495Z,53.90
2022-12-18T19:14:14.191Z,53.70
2022-12-18T19:16:42.118Z,53.00
2022-12-18T19:19:09.145Z,52.30
2022-12-18T19:21:37.721Z,50.20
2022-12-18T19:24:05.177Z,49.50
2022-12-18T19:26:31.883Z,50.40
2022-12-18T19:29:07.550Z,43.20
2022-12-18T19:31:36.737Z,42.20
2022-12-18T19:34:06.241Z,43.50
2022-12-18T19:36:34.727Z,42.00
2022-12-18T19:39:01.867Z,41.50
2022-12-18T19:41:31.382Z,42.70
2022-12-18T19:44:07.859Z,41.30
2022-12-18T19:46:35.475Z,42.00
2022-12-18T19:49:02.413Z,41.40
2022-12-18T19:51:30.768Z,42.50
2022-12-18T19:54:00.558Z,41.80
2022-12-18T19:56:33.118Z,40.20
2022-12-18T19:59:00.878Z,40.60
2022-12-18T20:01:29.401Z,41.80
2022-12-18T20:03:57.612Z,44.20
2022-12-18T20:06:55.019Z,42.00
2022-12-18T20:09:21.932Z,40.50
2022-12-18T20:11:49.812Z,39.80
2022-12-18T20:14:19.680Z,42.30
2022-12-18T20:16:51.742Z,47.60
2022-12-18T20:19:19.274Z,45.00
2022-12-18T20:21:46.274Z,45.40
2022-12-18T20:24:12.978Z,45.30
2022-12-18T20:26:40.184Z,44.40
2022-12-18T20:29:06.905Z,42.50
2022-12-18T20:31:33.700Z,42.50
2022-12-18T20:34:01.699Z,42.90
2022-12-18T20:36:30.718Z,43.10
2022-12-18T20:39:01.800Z,42.10
2022-12-18T20:41:36.447Z,43.20
2022-12-18T20:44:22.334Z,42.00
2022-12-18T20:46:56.541Z,40.60
2022-12-18T20:49:25.183Z,41.60
2022-12-18T20:51:57.003Z,42.00
2022-12-18T20:54:26.323Z,40.70
2022-12-18T20:56:53.835Z,39.20
2022-12-18T20:59:22.551Z,41.40
2022-12-18T21:01:49.663Z,40.10
2022-12-18T21:04:19.593Z,40.30
2022-12-18T21:06:52.411Z,40.10
2022-12-18T21:09:21.289Z,40.90
2022-12-18T21:12:06.871Z,38.80
2022-12-18T21:14:33.869Z,37.70
2022-12-18T21:17:01.415Z,38.60
2022-12-18T21:19:28.824Z,39.00
2022-12-18T21:21:57.032Z,38.70
2022-12-18T21:24:24.991Z,38.70
2022-12-18T21:26:52.264Z,38.80
2022-12-18T21:29:22.745Z,38.00
2022-12-18T21:31:50.829Z,38.20
2022-12-18T21:34:20.282Z,36.90
2022-12-18T21:36:47.734Z,39.10
2022-12-18T21:39:15.313Z,39.90
2022-12-18T21:42:01.125Z,37.80
2022-12-18T21:44:28.272Z,39.00
2022-12-18T21:47:00.592Z,37.60
2022-12-18T21:49:33.116Z,37.10
2022-12-18T21:52:01.122Z,38.40
2022-12-18T21:54:29.091Z,38.30
2022-12-18T21:57:01.848Z,39.80
2022-12-18T21:59:40.297Z,46.80
2022-12-18T22:02:20.302Z,40.00
2022-12-18T22:04:47.741Z,43.60
2022-12-18T22:07:16.127Z,48.10
2022-12-18T22:09:42.783Z,46.70
2022-12-18T22:12:12.783Z,43.30
2022-12-18T22:14:39.417Z,42.60
2022-12-18T22:17:06.180Z,42.80
2022-12-18T22:19:38.101Z,42.90
2022-12-18T22:22:09.466Z,49.80
2022-12-18T22:24:36.134Z,50.10
2022-12-18T22:27:02.843Z,47.40
2022-12-18T22:29:48.152Z,44.00
2022-12-18T22:32:16.455Z,41.10
2022-12-18T22:34:43.746Z,42.20
2022-12-18T22:37:11.816Z,42.80
2022-12-18T22:39:38.736Z,42.70
2022-12-18T22:42:06.012Z,43.20
2022-12-18T22:44:32.668Z,43.10
2022-12-18T22:47:05.766Z,42.40
2022-12-18T22:49:34.719Z,43.50
2022-12-18T22:52:03.638Z,43.70
2022-12-18T22:54:30.669Z,41.00
2022-12-18T22:56:57.276Z,41.80
2022-12-18T22:59:24.201Z,41.40
2022-12-18T23:01:58.426Z,40.90
2022-12-18T23:04:35.957Z,42.80
2022-12-18T23:07:04.921Z,41.10
2022-12-18T23:09:32.732Z,39.50
2022-12-18T23:12:00.169Z,39.60
2022-12-18T23:14:28.229Z,40.40
2022-12-18T23:16:54.969Z,39.70
2022-12-18T23:19:23.598Z,39.50
2022-12-18T23:21:51.323Z,38.10
2022-12-18T23:24:17.975Z,39.20
2022-12-18T23:26:44.691Z,37.80
2022-12-18T23:29:11.328Z,39.10
2022-12-18T23:31:39.553Z,35.70
2022-12-18T23:34:07.191Z,38.00
2022-12-18T23:36:45.360Z,37.50
2022-12-18T23:39:29.866Z,35.50
2022-12-18T23:41:57.885Z,36.90
2022-12-18T23:44:24.945Z,36.30
2022-12-18T23:46:51.650Z,35.70
2022-12-18T23:49:18.322Z,34.50
2022-12-18T23:51:44.913Z,34.70
2022-12-18T23:54:11.592Z,35.20
2022-12-18T23:56:38.259Z,35.90
2022-12-18T23:59:04.869Z,35.40
